Round Mountain, Arkansas
Current Conditions -  °F | °C
As of 1:53 PM on Thursday 29 Jan 2015 (Local Time) from KRUE Reporting Station
Clear Clear  
Wind Chill: 56°   Ceiling: Unl
Heat Index: 56°   Visibility: 10mi
Dew Point: 36°   Wind: 17mph
Humidity: 47%   Direction: 340°NNW
Pressure: 30.22"   Gusts: 24mph
Location:  35.031°N, 93.0373°W
Report Text: KRUE 291953Z AUTO 34015G21KT 10SM CLR 13/02 A3022 RMK AO2 SLP231 T01330022
Loading
Personal Weather Stations






























Interactive Weather Map New forecast layout! Learn more

10-Day Weather Forecast

Advertisements
Track Severe Weather on mobile